Time;durP1;ratioP1;P1;durP2;ratioP2;P2;SDS_P1;SDS_P2;PMS_P1;PMS_P2;Temp;Humidity;BMP_temperature;BMP_pressure;BME280_temperature;BME280_humidity;BME280_pressure;Samples;Min_cycle;Max_cycle;Signal;HPM_P1;HPM_P2
2022/03/16 00:00:23;;;;;;;8.20;5.27;;;11.20;73.40;;;;;;5024485;28;20219;-45
2022/03/16 00:02:51;;;;;;;8.97;6.00;;;11.10;73.60;;;;;;5027660;28;20201;-44
2022/03/16 00:05:18;;;;;;;8.00;5.40;;;11.10;74.10;;;;;;5020630;28;20279;-43
2022/03/16 00:07:46;;;;;;;13.13;8.43;;;11.10;74.30;;;;;;5024813;28;20680;-46
2022/03/16 00:10:14;;;;;;;11.80;6.97;;;11.10;74.80;;;;;;5028440;28;20564;-47
2022/03/16 00:12:43;;;;;;;10.43;6.67;;;11.10;75.30;;;;;;5024516;28;20199;-46
2022/03/16 00:15:11;;;;;;;9.33;6.50;;;11.10;75.40;;;;;;5022657;28;20237;-43
2022/03/16 00:17:38;;;;;;;13.80;8.23;;;11.10;75.70;;;;;;5027053;28;20511;-44
2022/03/16 00:20:06;;;;;;;10.93;6.37;;;11.10;76.20;;;;;;5025931;28;20214;-48
2022/03/16 00:22:33;;;;;;;8.50;5.70;;;11.00;77.20;;;;;;5026345;28;20785;-42
2022/03/16 00:25:01;;;;;;;9.00;5.87;;;11.00;76.80;;;;;;5024112;28;20198;-44
2022/03/16 00:27:30;;;;;;;7.57;5.80;;;11.00;77.00;;;;;;5009971;28;20196;-45
2022/03/16 00:29:57;;;;;;;9.10;5.80;;;11.00;77.30;;;;;;5024736;28;20651;-45
2022/03/16 00:32:24;;;;;;;10.53;6.47;;;11.00;77.50;;;;;;5022820;28;20221;-44
2022/03/16 00:34:51;;;;;;;9.23;6.03;;;11.00;77.60;;;;;;5023240;28;20199;-44
2022/03/16 00:37:21;;;;;;;8.53;5.87;;;10.90;77.90;;;;;;5024667;28;20286;-46
2022/03/16 00:39:48;;;;;;;8.37;5.27;;;11.00;78.10;;;;;;5025407;28;20203;-46
2022/03/16 00:42:15;;;;;;;7.27;4.93;;;11.00;78.20;;;;;;5025233;28;20222;-44
2022/03/16 00:44:44;;;;;;;7.70;4.97;;;11.00;78.20;;;;;;5014825;28;20196;-45
2022/03/16 00:47:11;;;;;;;6.97;4.90;;;11.00;78.30;;;;;;5021761;28;20741;-44
2022/03/16 00:49:38;;;;;;;8.90;5.93;;;11.10;78.40;;;;;;5005802;28;20200;-44
2022/03/16 00:52:06;;;;;;;9.37;5.47;;;11.00;78.50;;;;;;5020119;28;20195;-45
2022/03/16 00:54:33;;;;;;;11.00;6.97;;;11.00;78.70;;;;;;5011233;28;20202;-44
2022/03/16 00:57:02;;;;;;;10.87;7.00;;;11.00;79.20;;;;;;5025908;28;20195;-45
2022/03/16 00:59:29;;;;;;;8.20;5.67;;;11.00;79.30;;;;;;5021949;28;20761;-46
2022/03/16 01:01:58;;;;;;;6.90;5.10;;;11.00;79.50;;;;;;5025378;28;20215;-44
2022/03/16 01:04:26;;;;;;;9.60;5.67;;;11.00;79.60;;;;;;5031233;28;20594;-45
2022/03/16 01:06:55;;;;;;;8.17;5.40;;;10.90;79.80;;;;;;5024166;28;20219;-47
2022/03/16 01:09:23;;;;;;;8.40;5.30;;;10.90;80.10;;;;;;5028220;28;20188;-43
2022/03/16 01:11:50;;;;;;;10.77;6.87;;;10.90;80.40;;;;;;5029340;28;20204;-43
2022/03/16 01:14:18;;;;;;;7.20;4.87;;;10.80;80.80;;;;;;5024554;28;20708;-43
2022/03/16 01:16:45;;;;;;;9.40;5.73;;;10.80;81.20;;;;;;5020499;28;20199;-43
2022/03/16 01:19:14;;;;;;;6.90;4.97;;;10.80;81.40;;;;;;5029384;28;20206;-44
2022/03/16 01:21:42;;;;;;;7.17;5.23;;;10.80;81.60;;;;;;5023138;28;20223;-45
2022/03/16 01:24:10;;;;;;;8.60;5.70;;;10.80;81.80;;;;;;5013091;28;20211;-46
2022/03/16 01:26:37;;;;;;;11.00;7.00;;;10.80;82.90;;;;;;5013398;28;20214;-43
2022/03/16 01:29:04;;;;;;;10.10;6.13;;;10.70;82.40;;;;;;5028200;28;20208;-44
2022/03/16 01:31:32;;;;;;;8.80;5.37;;;10.70;82.80;;;;;;5026070;28;20276;-43
2022/03/16 01:33:59;;;;;;;10.17;6.53;;;10.70;83.10;;;;;;5028075;28;20206;-46
2022/03/16 01:36:28;;;;;;;8.57;6.00;;;10.70;83.60;;;;;;5028934;28;20214;-44
2022/03/16 01:38:55;;;;;;;8.27;5.43;;;10.70;84.00;;;;;;5030272;28;20283;-46
2022/03/16 01:41:23;;;;;;;6.53;4.97;;;10.70;85.10;;;;;;5027429;28;20200;-43
2022/03/16 01:43:54;;;;;;;5.53;4.30;;;10.70;84.40;;;;;;5021532;28;20590;-44
2022/03/16 01:46:22;;;;;;;12.97;5.97;;;10.70;84.50;;;;;;5010930;28;20307;-45
2022/03/16 01:48:52;;;;;;;8.87;5.30;;;10.70;84.80;;;;;;5026450;28;20714;-54
2022/03/16 01:51:19;;;;;;;13.10;6.40;;;10.70;85.00;;;;;;5020304;28;20252;-53
2022/03/16 01:53:48;;;;;;;9.10;5.17;;;10.70;85.30;;;;;;5013816;28;20220;-53
2022/03/16 01:56:16;;;;;;;8.87;3.70;;;10.70;85.60;;;;;;5026040;28;20198;-52
2022/03/16 01:58:43;;;;;;;6.23;3.67;;;10.70;85.60;;;;;;5028907;28;20206;-48
2022/03/16 02:01:11;;;;;;;9.07;3.93;;;10.70;85.60;;;;;;5017266;28;20575;-47
2022/03/16 02:03:38;;;;;;;6.97;4.40;;;10.70;85.70;;;;;;5011364;28;20236;-44
2022/03/16 02:06:05;;;;;;;9.77;4.17;;;10.70;86.10;;;;;;5023652;28;20691;-43
2022/03/16 02:08:35;;;;;;;8.53;4.37;;;10.70;86.30;;;;;;5008031;28;20723;-44
2022/03/16 02:11:04;;;;;;;6.77;3.67;;;10.70;86.30;;;;;;5029417;28;20200;-44
2022/03/16 02:13:34;;;;;;;11.00;5.07;;;10.80;86.30;;;;;;5028337;28;20222;-44
2022/03/16 02:16:02;;;;;;;8.43;5.00;;;10.70;86.40;;;;;;5023505;28;20262;-43
2022/03/16 02:18:29;;;;;;;7.67;4.73;;;10.70;86.80;;;;;;5026825;28;20202;-46
2022/03/16 02:21:00;;;;;;;8.10;5.03;;;10.70;86.90;;;;;;5025400;28;20315;-45
2022/03/16 02:23:28;;;;;;;5.97;4.07;;;10.70;87.20;;;;;;5024291;28;20200;-44
2022/03/16 02:25:56;;;;;;;7.33;4.07;;;10.70;87.40;;;;;;5027572;28;20199;-46
2022/03/16 02:28:24;;;;;;;6.90;4.40;;;10.70;87.60;;;;;;5023298;28;20209;-44
2022/03/16 02:30:52;;;;;;;7.70;5.50;;;10.70;87.70;;;;;;5025167;28;20249;-43
2022/03/16 02:33:20;;;;;;;6.53;4.63;;;10.70;88.00;;;;;;5029552;28;20551;-45
2022/03/16 02:35:47;;;;;;;7.17;5.27;;;10.70;88.40;;;;;;5022455;28;20273;-43
2022/03/16 02:38:14;;;;;;;6.07;4.33;;;10.70;88.70;;;;;;5027181;28;20226;-44
2022/03/16 02:40:42;;;;;;;5.73;4.43;;;10.70;88.80;;;;;;5028828;28;20559;-43
2022/03/16 02:43:10;;;;;;;6.80;4.60;;;10.70;89.00;;;;;;5025820;28;20209;-42
2022/03/16 02:45:37;;;;;;;5.10;3.77;;;10.70;89.10;;;;;;5026366;28;20209;-44
2022/03/16 02:48:05;;;;;;;4.37;3.70;;;10.70;89.20;;;;;;5010113;28;20211;-43
2022/03/16 02:50:32;;;;;;;7.00;4.40;;;10.70;89.30;;;;;;5026640;28;20557;-42
2022/03/16 02:53:00;;;;;;;4.93;3.77;;;10.70;89.50;;;;;;5006575;28;20205;-43
2022/03/16 02:55:27;;;;;;;4.27;3.43;;;10.70;89.80;;;;;;4994367;28;20571;-45
2022/03/16 02:57:55;;;;;;;4.37;3.30;;;10.70;89.90;;;;;;5026860;28;20198;-44
2022/03/16 03:00:26;;;;;;;5.27;4.17;;;10.70;90.00;;;;;;5027410;28;20196;-43
2022/03/16 03:02:54;;;;;;;4.80;3.80;;;10.60;90.00;;;;;;5027441;28;20200;-42
2022/03/16 03:05:21;;;;;;;4.73;3.83;;;10.60;90.10;;;;;;5016675;28;20204;-44
2022/03/16 03:07:48;;;;;;;5.10;3.70;;;10.60;90.20;;;;;;5026337;28;20196;-44
2022/03/16 03:10:16;;;;;;;4.47;3.47;;;10.50;90.40;;;;;;5026139;28;20229;-44
2022/03/16 03:12:43;;;;;;;5.63;3.80;;;10.50;90.50;;;;;;5028428;28;20309;-45
2022/03/16 03:15:13;;;;;;;4.17;3.30;;;10.40;90.50;;;;;;5027947;28;20682;-45
2022/03/16 03:17:41;;;;;;;4.73;3.73;;;10.50;90.70;;;;;;5023040;28;20312;-49
2022/03/16 03:20:09;;;;;;;3.60;2.90;;;10.50;90.80;;;;;;5023731;28;20202;-46
2022/03/16 03:22:37;;;;;;;4.27;3.60;;;10.50;90.80;;;;;;5022049;28;20216;-45
2022/03/16 03:25:06;;;;;;;4.20;3.63;;;10.50;90.80;;;;;;5026628;28;20676;-47
2022/03/16 03:27:33;;;;;;;4.73;3.87;;;10.50;91.00;;;;;;5022561;28;20217;-45
2022/03/16 03:30:01;;;;;;;5.27;3.87;;;10.50;91.10;;;;;;5007291;28;20251;-44
2022/03/16 03:32:29;;;;;;;7.90;4.80;;;10.50;91.20;;;;;;5027662;28;20205;-47
2022/03/16 03:34:56;;;;;;;7.10;4.40;;;10.30;91.40;;;;;;5029244;28;20199;-44
2022/03/16 03:37:27;;;;;;;6.27;4.37;;;10.30;91.50;;;;;;5022850;28;20206;-45
2022/03/16 03:39:55;;;;;;;5.13;3.93;;;10.30;91.60;;;;;;5029107;28;20203;-45
2022/03/16 03:42:22;;;;;;;4.50;3.60;;;10.30;91.70;;;;;;5028415;28;20212;-50
2022/03/16 03:44:49;;;;;;;4.60;3.20;;;10.30;91.70;;;;;;5025216;28;20718;-46
2022/03/16 03:47:17;;;;;;;4.70;3.73;;;10.30;91.70;;;;;;5028037;28;20205;-44
2022/03/16 03:49:45;;;;;;;5.07;3.67;;;10.30;91.70;;;;;;5028109;28;20198;-46
2022/03/16 03:52:12;;;;;;;4.70;3.70;;;10.30;91.80;;;;;;5026248;28;20631;-46
2022/03/16 03:54:40;;;;;;;4.67;3.23;;;10.30;91.90;;;;;;5028421;28;20202;-46
2022/03/16 03:57:08;;;;;;;4.30;3.70;;;10.40;91.90;;;;;;5028535;28;20285;-42
2022/03/16 03:59:35;;;;;;;5.17;3.53;;;10.40;91.90;;;;;;5032360;28;20662;-48
2022/03/16 04:02:02;;;;;;;5.23;3.77;;;10.30;91.80;;;;;;5031507;28;20218;-49
2022/03/16 04:04:29;;;;;;;4.80;3.63;;;10.30;91.90;;;;;;5029501;28;20331;-46
2022/03/16 04:06:57;;;;;;;3.47;3.17;;;10.30;91.90;;;;;;5033426;28;20221;-51
2022/03/16 04:09:25;;;;;;;6.23;4.37;;;10.30;92.00;;;;;;5019452;28;20196;-45
2022/03/16 04:11:52;;;;;;;5.47;3.70;;;10.30;92.10;;;;;;5028507;28;20205;-49
2022/03/16 04:14:19;;;;;;;5.33;3.87;;;10.30;92.20;;;;;;5023586;28;20685;-52
2022/03/16 04:16:46;;;;;;;4.67;3.53;;;10.20;92.20;;;;;;5031093;28;20264;-44
2022/03/16 04:19:14;;;;;;;5.43;3.73;;;9.20;92.40;;;;;;5024082;28;20567;-52
2022/03/16 04:21:41;;;;;;;5.33;4.10;;;10.20;92.50;;;;;;5024736;28;20219;-45
2022/03/16 04:24:09;;;;;;;5.77;4.03;;;10.20;92.50;;;;;;5020451;28;20212;-46
2022/03/16 04:26:36;;;;;;;7.10;4.40;;;10.20;92.50;;;;;;5027976;28;20198;-47
2022/03/16 04:29:04;;;;;;;5.57;3.40;;;10.20;92.50;;;;;;5010506;28;20208;-43
2022/03/16 04:31:31;;;;;;;5.73;4.33;;;10.20;92.60;;;;;;5021807;28;20223;-46
2022/03/16 04:33:58;;;;;;;6.53;4.47;;;10.30;92.70;;;;;;5028929;28;20841;-47
2022/03/16 04:36:26;;;;;;;6.17;4.30;;;10.30;92.80;;;;;;5027786;28;20210;-46
2022/03/16 04:38:53;;;;;;;5.13;3.77;;;10.30;92.80;;;;;;5007958;28;20662;-47
2022/03/16 04:41:21;;;;;;;4.37;3.27;;;10.20;92.80;;;;;;5032201;28;20230;-46
2022/03/16 04:43:48;;;;;;;5.20;3.30;;;10.20;92.80;;;;;;5018507;28;20278;-50
2022/03/16 04:46:16;;;;;;;6.97;4.57;;;10.20;92.90;;;;;;5027952;28;20252;-48
2022/03/16 04:48:43;;;;;;;5.93;4.43;;;10.20;93.00;;;;;;5031715;28;20628;-50
2022/03/16 04:51:10;;;;;;;5.93;4.40;;;10.20;93.00;;;;;;5014126;28;20214;-52
2022/03/16 04:53:38;;;;;;;6.33;4.17;;;10.20;93.10;;;;;;5028049;28;20276;-52
2022/03/16 04:56:05;;;;;;;6.07;4.37;;;10.20;93.10;;;;;;5027291;28;20230;-50
2022/03/16 04:58:33;;;;;;;5.83;3.43;;;10.60;93.30;;;;;;5021751;28;20214;-53
2022/03/16 05:01:01;;;;;;;4.60;3.73;;;10.20;93.10;;;;;;5009599;28;20209;-52
2022/03/16 05:03:28;;;;;;;8.50;5.37;;;10.30;93.10;;;;;;5019083;28;20292;-52
2022/03/16 05:05:55;;;;;;;5.20;4.27;;;10.30;93.10;;;;;;5009221;28;20665;-44
2022/03/16 05:08:22;;;;;;;5.10;3.80;;;10.30;93.10;;;;;;5030528;28;20212;-45
2022/03/16 05:10:49;;;;;;;7.07;5.00;;;10.30;93.00;;;;;;5029329;28;20202;-49
2022/03/16 05:13:17;;;;;;;6.57;4.63;;;10.30;93.00;;;;;;5026690;28;20244;-49
2022/03/16 05:15:47;;;;;;;4.70;3.80;;;10.30;93.00;;;;;;5023542;28;20194;-44
2022/03/16 05:18:15;;;;;;;5.87;4.57;;;10.30;93.10;;;;;;5024009;28;20194;-47
2022/03/16 05:20:42;;;;;;;5.27;4.20;;;10.20;93.10;;;;;;5026533;28;20282;-44
2022/03/16 05:23:09;;;;;;;6.30;4.60;;;10.20;93.20;;;;;;5026257;28;20215;-45
2022/03/16 05:25:36;;;;;;;6.23;4.33;;;10.20;93.20;;;;;;5025291;28;20203;-45
2022/03/16 05:28:04;;;;;;;9.90;5.93;;;10.20;93.20;;;;;;5026976;28;20195;-47
2022/03/16 05:30:31;;;;;;;12.70;7.23;;;10.20;93.30;;;;;;5025884;28;20201;-45
2022/03/16 05:33:01;;;;;;;10.67;6.53;;;10.20;93.40;;;;;;5027790;28;20205;-44
2022/03/16 05:35:30;;;;;;;10.80;6.90;;;10.20;93.40;;;;;;5030413;28;20196;-45
2022/03/16 05:37:57;;;;;;;10.73;6.60;;;10.20;93.40;;;;;;5029821;28;20293;-48
2022/03/16 05:40:24;;;;;;;12.53;7.13;;;10.30;93.50;;;;;;5028492;28;20225;-46
2022/03/16 05:42:51;;;;;;;20.70;9.53;;;10.30;93.50;;;;;;5030476;28;20222;-46
2022/03/16 05:45:19;;;;;;;18.20;9.17;;;10.30;93.60;;;;;;5029314;28;20558;-47
2022/03/16 05:47:46;;;;;;;17.90;10.07;;;10.30;93.60;;;;;;5026900;28;20198;-46
2022/03/16 05:50:14;;;;;;;19.87;9.70;;;10.30;93.70;;;;;;5011861;28;20208;-43
2022/03/16 05:52:43;;;;;;;14.53;8.13;;;10.30;93.80;;;;;;5027612;28;20240;-47
2022/03/16 05:55:13;;;;;;;14.57;7.80;;;10.20;93.90;;;;;;5030458;28;20199;-46
2022/03/16 05:57:40;;;;;;;12.80;6.23;;;10.30;94.10;;;;;;5012515;28;20642;-43
2022/03/16 06:00:08;;;;;;;12.00;6.77;;;10.30;94.10;;;;;;5025291;28;20685;-45
2022/03/16 06:02:35;;;;;;;14.83;7.50;;;10.30;94.10;;;;;;5022842;28;20209;-44
2022/03/16 06:05:03;;;;;;;13.80;6.87;;;10.40;94.20;;;;;;5012997;28;20252;-46
2022/03/16 06:07:31;;;;;;;15.13;7.70;;;10.40;94.20;;;;;;5025795;28;20209;-45
2022/03/16 06:09:59;;;;;;;19.23;9.50;;;10.50;94.30;;;;;;5029026;28;20230;-46
2022/03/16 06:12:26;;;;;;;20.07;9.97;;;10.50;94.40;;;;;;5029029;28;20202;-46
2022/03/16 06:14:53;;;;;;;14.87;8.20;;;10.50;94.50;;;;;;5027574;28;20221;-45
2022/03/16 06:17:21;;;;;;;17.47;8.50;;;10.40;94.50;;;;;;5028705;28;20216;-47
2022/03/16 06:19:48;;;;;;;15.10;8.63;;;10.50;94.80;;;;;;5028020;28;20203;-45
2022/03/16 06:22:15;;;;;;;15.93;8.40;;;10.40;94.80;;;;;;5011203;28;20222;-45
2022/03/16 06:24:43;;;;;;;18.93;8.73;;;10.40;94.90;;;;;;5029300;28;20300;-46
2022/03/16 06:27:10;;;;;;;24.50;11.77;;;10.40;95.00;;;;;;5027120;28;20192;-44
2022/03/16 06:29:38;;;;;;;20.60;10.57;;;10.40;95.20;;;;;;5029441;28;20298;-48
2022/03/16 06:32:06;;;;;;;24.17;12.20;;;10.40;95.30;;;;;;5028333;28;20675;-44
2022/03/16 06:34:33;;;;;;;29.37;15.07;;;10.40;95.40;;;;;;5027212;28;20205;-43
2022/03/16 06:37:00;;;;;;;29.53;14.13;;;10.40;95.70;;;;;;5014341;28;20207;-44
2022/03/16 06:39:27;;;;;;;38.37;18.30;;;10.40;95.80;;;;;;5022792;28;20689;-44
2022/03/16 06:41:55;;;;;;;36.33;17.10;;;10.40;96.00;;;;;;5024723;28;20195;-45
2022/03/16 06:44:22;;;;;;;33.50;16.23;;;10.40;96.20;;;;;;5015496;28;20202;-44
2022/03/16 06:46:51;;;;;;;37.23;18.03;;;10.30;96.20;;;;;;5026023;28;20291;-43
2022/03/16 06:49:18;;;;;;;29.30;15.10;;;10.30;96.40;;;;;;5029035;28;20200;-46
2022/03/16 06:51:45;;;;;;;29.03;15.63;;;10.30;96.50;;;;;;5027334;28;20204;-45
2022/03/16 06:54:12;;;;;;;32.97;17.37;;;10.30;96.60;;;;;;5020750;28;20208;-46
2022/03/16 06:56:39;;;;;;;28.07;15.67;;;10.30;96.90;;;;;;5025144;28;20254;-45
2022/03/16 06:59:07;;;;;;;25.17;14.87;;;10.30;96.90;;;;;;5028431;28;20195;-44
2022/03/16 07:01:35;;;;;;;23.47;13.67;;;10.20;97.10;;;;;;5025731;28;20638;-45
2022/03/16 07:04:02;;;;;;;28.00;15.67;;;10.30;97.20;;;;;;5023689;28;20241;-48
2022/03/16 07:06:29;;;;;;;30.37;16.97;;;10.20;97.30;;;;;;5022176;28;20204;-44
2022/03/16 07:08:56;;;;;;;24.13;14.00;;;10.20;97.40;;;;;;5027454;28;20273;-46
2022/03/16 07:11:23;;;;;;;28.47;15.57;;;10.80;97.80;;;;;;5026356;28;20209;-47
2022/03/16 07:16:33;;;;;;;34.37;19.30;;;10.20;97.90;;;;;;5008405;28;20574;-44
2022/03/16 07:19:01;;;;;;;37.00;19.50;;;10.20;98.10;;;;;;5026606;28;20196;-48
2022/03/16 07:21:28;;;;;;;34.70;18.43;;;10.10;98.40;;;;;;5003482;28;20225;-45
2022/03/16 07:23:55;;;;;;;33.13;18.03;;;10.10;98.60;;;;;;5022078;28;20630;-50
2022/03/16 07:26:22;;;;;;;31.30;16.97;;;10.10;98.80;;;;;;5021787;28;20204;-46
2022/03/16 07:28:50;;;;;;;31.50;18.07;;;10.00;98.90;;;;;;5006676;28;20203;-49
2022/03/16 07:31:17;;;;;;;32.47;17.63;;;10.00;99.20;;;;;;5023427;28;20287;-48
2022/03/16 07:33:46;;;;;;;35.50;17.83;;;10.00;99.50;;;;;;5024062;28;20200;-45
2022/03/16 07:36:13;;;;;;;32.67;17.03;;;10.00;99.60;;;;;;5024951;28;20206;-46
2022/03/16 07:38:41;;;;;;;25.70;13.63;;;9.90;99.90;;;;;;5011168;28;20214;-46
2022/03/16 07:41:08;;;;;;;19.03;10.50;;;9.90;99.90;;;;;;5014534;28;20210;-49
2022/03/16 07:43:35;;;;;;;28.17;15.13;;;9.90;99.90;;;;;;5027250;28;20211;-45
2022/03/16 07:46:03;;;;;;;24.83;13.63;;;9.90;99.90;;;;;;5027070;28;20196;-49
2022/03/16 07:48:30;;;;;;;30.03;15.63;;;9.90;99.90;;;;;;5018018;28;20690;-48
2022/03/16 07:50:58;;;;;;;33.47;16.63;;;9.90;99.90;;;;;;5024415;28;20232;-45
2022/03/16 07:53:25;;;;;;;32.77;17.47;;;10.00;99.90;;;;;;5027596;28;20258;-53
2022/03/16 07:55:55;;;;;;;28.07;15.00;;;10.00;99.90;;;;;;5025596;28;20195;-52
2022/03/16 07:58:22;;;;;;;29.57;14.53;;;10.00;99.90;;;;;;5028092;28;20226;-49
2022/03/16 08:00:49;;;;;;;25.50;13.63;;;10.00;99.90;;;;;;5014441;28;20207;-47
2022/03/16 08:03:17;;;;;;;27.37;14.30;;;10.10;99.90;;;;;;5021463;28;20596;-49
2022/03/16 08:05:46;;;;;;;33.90;17.30;;;10.00;99.90;;;;;;5008588;28;20211;-49
2022/03/16 08:08:17;;;;;;;31.90;16.60;;;10.00;99.90;;;;;;5027309;28;20209;-52
2022/03/16 08:10:44;;;;;;;37.43;19.13;;;10.00;99.90;;;;;;5024340;28;20203;-51
2022/03/16 08:13:11;;;;;;;32.67;17.77;;;10.00;99.90;;;;;;5024218;28;20212;-51
2022/03/16 08:15:38;;;;;;;26.73;15.03;;;10.00;99.90;;;;;;5019968;28;20211;-48
2022/03/16 08:18:05;;;;;;;29.40;15.37;;;10.10;99.90;;;;;;5004882;28;20209;-50
2022/03/16 08:20:33;;;;;;;23.00;12.80;;;10.00;99.90;;;;;;5006175;28;20247;-47
2022/03/16 08:23:00;;;;;;;26.23;14.07;;;10.00;99.90;;;;;;5025639;28;20214;-47
2022/03/16 08:25:28;;;;;;;18.93;11.80;;;10.00;99.90;;;;;;5024338;28;20204;-45
2022/03/16 08:27:55;;;;;;;26.33;13.87;;;10.00;99.90;;;;;;5024699;28;20214;-48
2022/03/16 08:30:23;;;;;;;17.43;10.83;;;10.00;99.90;;;;;;5026726;28;20199;-48
2022/03/16 08:32:50;;;;;;;25.93;13.97;;;10.00;99.90;;;;;;5018961;28;20604;-44
2022/03/16 08:35:17;;;;;;;21.20;12.30;;;10.00;99.90;;;;;;5027766;28;20781;-48
2022/03/16 08:37:44;;;;;;;16.00;9.30;;;10.00;99.90;;;;;;5019794;28;20306;-49
2022/03/16 08:40:15;;;;;;;19.27;11.47;;;10.00;99.90;;;;;;5024433;28;20205;-48
2022/03/16 08:42:43;;;;;;;20.87;11.90;;;10.10;99.90;;;;;;5027746;28;20592;-47
2022/03/16 08:45:11;;;;;;;23.83;12.80;;;10.10;99.90;;;;;;5029785;28;20272;-43
2022/03/16 08:47:38;;;;;;;21.97;13.13;;;10.20;99.90;;;;;;5027406;28;20200;-47
2022/03/16 08:50:07;;;;;;;25.03;13.83;;;10.10;99.90;;;;;;5031622;28;20574;-44
2022/03/16 08:52:34;;;;;;;25.70;14.17;;;10.20;99.90;;;;;;5023525;28;20203;-44
2022/03/16 08:55:01;;;;;;;24.73;13.43;;;10.20;99.90;;;;;;5030889;28;20244;-48
2022/03/16 08:57:28;;;;;;;23.60;13.10;;;10.20;99.90;;;;;;5031980;28;20674;-45
2022/03/16 08:59:57;;;;;;;18.60;11.13;;;10.20;99.90;;;;;;5027199;28;20202;-45
2022/03/16 09:02:25;;;;;;;15.47;10.10;;;10.10;99.90;;;;;;5028365;28;20207;-45
2022/03/16 09:04:52;;;;;;;14.70;9.47;;;10.20;99.90;;;;;;5028133;28;20340;-49
2022/03/16 09:07:19;;;;;;;16.63;10.20;;;10.20;99.90;;;;;;5031890;28;20256;-45
2022/03/16 09:09:46;;;;;;;12.07;7.63;;;10.20;99.90;;;;;;5029770;28;20202;-47
2022/03/16 09:12:15;;;;;;;9.83;7.10;;;10.20;99.90;;;;;;5030050;28;20199;-48
2022/03/16 09:14:43;;;;;;;9.93;6.70;;;10.20;99.90;;;;;;5028511;28;20498;-47
2022/03/16 09:17:12;;;;;;;10.07;7.00;;;10.20;99.90;;;;;;5030408;28;20204;-44
2022/03/16 09:19:39;;;;;;;16.60;10.73;;;10.20;99.90;;;;;;5027126;28;20678;-45
2022/03/16 09:22:07;;;;;;;17.47;10.50;;;10.30;99.90;;;;;;5022937;28;20598;-47
2022/03/16 09:24:35;;;;;;;20.17;11.50;;;10.20;99.80;;;;;;5016218;28;20217;-48
2022/03/16 09:27:02;;;;;;;16.07;10.93;;;10.30;99.90;;;;;;5022688;28;20211;-49
2022/03/16 09:29:29;;;;;;;13.13;9.33;;;10.20;99.80;;;;;;5028535;28;20572;-48
2022/03/16 09:31:57;;;;;;;10.23;7.43;;;10.20;99.80;;;;;;5019162;28;20195;-44
2022/03/16 09:34:25;;;;;;;13.90;8.47;;;10.30;99.80;;;;;;5022586;28;20542;-52
2022/03/16 09:36:53;;;;;;;12.50;8.40;;;10.30;99.90;;;;;;5030566;28;20202;-50
2022/03/16 09:39:20;;;;;;;13.10;9.13;;;10.30;99.80;;;;;;5027438;28;20203;-49
2022/03/16 09:41:47;;;;;;;10.07;6.87;;;10.30;99.80;;;;;;5029622;28;20213;-46
2022/03/16 09:44:15;;;;;;;13.20;8.23;;;10.30;99.70;;;;;;5021944;28;20733;-47
2022/03/16 09:46:45;;;;;;;15.57;9.73;;;10.30;99.60;;;;;;5025024;28;20652;-47
2022/03/16 09:49:15;;;;;;;11.80;8.10;;;10.30;99.60;;;;;;5029861;28;20260;-46
2022/03/16 09:51:43;;;;;;;16.27;10.60;;;10.30;99.50;;;;;;5023005;28;20196;-45
2022/03/16 09:54:11;;;;;;;20.43;12.37;;;10.30;99.50;;;;;;5027127;28;20194;-47
2022/03/16 09:56:38;;;;;;;20.37;10.70;;;10.20;99.50;;;;;;5028023;28;20246;-47
2022/03/16 09:59:05;;;;;;;14.83;9.27;;;10.20;99.40;;;;;;5027234;28;20194;-45
2022/03/16 10:01:35;;;;;;;12.97;8.43;;;10.20;99.40;;;;;;5009241;28;21140;-49
2022/03/16 10:04:03;;;;;;;13.67;8.83;;;10.10;99.50;;;;;;5028679;28;20328;-48
2022/03/16 10:06:30;;;;;;;19.03;10.77;;;10.20;99.60;;;;;;5026088;28;20190;-45
2022/03/16 10:15:01;;;;;;;12.83;7.93;;;10.10;99.50;;;;;;4952955;28;20257;-48
2022/03/16 10:17:44;;;;;;;11.27;8.10;;;10.10;99.50;;;;;;5009284;28;20203;-45
2022/03/16 10:20:12;;;;;;;12.17;7.50;;;10.20;99.60;;;;;;5007989;28;20198;-45
2022/03/16 10:22:41;;;;;;;13.27;8.57;;;10.20;99.70;;;;;;5024121;28;20357;-44
2022/03/16 10:25:10;;;;;;;19.63;10.73;;;10.20;99.60;;;;;;5007818;28;20594;-45
2022/03/16 10:27:38;;;;;;;15.77;10.27;;;10.20;99.50;;;;;;5023031;28;20203;-46
2022/03/16 10:30:09;;;;;;;17.90;11.07;;;10.20;99.50;;;;;;5028255;28;20245;-44
2022/03/16 10:32:36;;;;;;;13.57;7.97;;;10.20;99.40;;;;;;5025589;28;20197;-44
2022/03/16 10:35:05;;;;;;;10.63;7.13;;;10.20;99.40;;;;;;5010405;28;20211;-46
2022/03/16 10:37:36;;;;;;;13.93;8.53;;;10.20;99.40;;;;;;5022027;28;20736;-44
2022/03/16 10:40:17;;;;;;;13.20;8.77;;;10.20;99.40;;;;;;5027575;28;20204;-48
2022/03/16 10:48:19;;;;;;;16.37;9.87;;;10.20;99.20;;;;;;5029134;28;20210;-51
2022/03/16 10:50:48;;;;;;;15.67;9.33;;;10.20;99.20;;;;;;5023982;28;20672;-51
2022/03/16 10:53:17;;;;;;;14.77;8.77;;;10.20;99.20;;;;;;5024607;28;20201;-51
2022/03/16 10:55:47;;;;;;;16.70;9.37;;;10.20;99.10;;;;;;5023356;28;20199;-52
2022/03/16 10:58:17;;;;;;;18.30;10.23;;;10.10;99.10;;;;;;5024124;28;20708;-51
2022/03/16 11:00:45;;;;;;;18.77;10.47;;;10.10;99.00;;;;;;5022505;28;20188;-48
2022/03/16 11:03:16;;;;;;;14.97;9.57;;;10.10;98.90;;;;;;5024515;28;20562;-49
2022/03/16 11:05:44;;;;;;;14.00;8.13;;;10.10;98.80;;;;;;5026944;28;20516;-45
2022/03/16 11:08:36;;;;;;;14.73;9.40;;;10.10;99.00;;;;;;5028295;28;20207;-47
2022/03/16 11:13:27;;;;;;;14.37;8.23;;;10.10;98.60;;;;;;5028447;28;20205;-48
2022/03/16 11:13:52;;;;;;;16.57;9.93;;;10.00;98.50;;;;;;5026115;28;20231;-49
2022/03/16 11:16:20;;;;;;;19.07;11.77;;;10.00;98.50;;;;;;5013496;28;20639;-47
2022/03/16 11:18:49;;;;;;;16.50;9.77;;;10.10;98.40;;;;;;5025341;28;20225;-44
2022/03/16 11:21:29;;;;;;;23.37;10.83;;;10.10;98.20;;;;;;5028205;28;20221;-48
2022/03/16 11:24:16;;;;;;;25.27;12.13;;;10.20;98.60;;;;;;5027570;28;20679;-46
2022/03/16 11:26:57;;;;;;;21.50;12.23;;;10.20;97.90;;;;;;5024574;28;20666;-46
2022/03/16 11:29:39;;;;;;;17.57;10.70;;;10.20;97.40;;;;;;5028131;28;20206;-49
2022/03/16 11:32:11;;;;;;;19.20;11.87;;;10.20;97.30;;;;;;5025108;28;20192;-49
2022/03/16 11:34:38;;;;;;;24.87;12.43;;;10.20;97.30;;;;;;5027738;28;20202;-46
2022/03/16 11:37:09;;;;;;;20.53;11.83;;;10.20;97.20;;;;;;5028739;28;20262;-46
2022/03/16 11:39:42;;;;;;;23.73;12.90;;;10.20;97.00;;;;;;5025562;28;20190;-44
2022/03/16 11:42:11;;;;;;;24.33;13.17;;;10.20;97.00;;;;;;5029413;28;20224;-47
2022/03/16 11:44:40;;;;;;;22.30;12.53;;;10.20;96.80;;;;;;5028060;28;20246;-48
2022/03/16 11:47:33;;;;;;;22.60;13.07;;;10.20;96.60;;;;;;5023940;28;20279;-47
2022/03/16 11:50:13;;;;;;;24.57;14.53;;;10.10;96.60;;;;;;5028750;28;20662;-47
2022/03/16 11:53:07;;;;;;;27.20;14.40;;;10.10;96.50;;;;;;5025655;28;20198;-48
2022/03/16 11:55:43;;;;;;;26.67;14.10;;;10.20;96.40;;;;;;5027609;28;20186;-45
2022/03/16 11:58:19;;;;;;;17.80;10.37;;;10.10;96.20;;;;;;5026211;28;20222;-49
2022/03/16 12:00:48;;;;;;;23.77;13.33;;;10.10;96.20;;;;;;5024639;28;20262;-46
2022/03/16 12:03:22;;;;;;;20.67;12.10;;;10.10;96.20;;;;;;5025644;28;20265;-45
2022/03/16 12:05:59;;;;;;;26.80;14.90;;;10.20;96.30;;;;;;5008010;28;20204;-50
2022/03/16 12:08:32;;;;;;;25.63;14.67;;;10.20;96.10;;;;;;5007804;28;20211;-46
2022/03/16 12:13:45;;;;;;;25.67;13.53;;;10.10;95.70;;;;;;5004043;28;20211;-47
2022/03/16 12:16:19;;;;;;;29.10;15.83;;;10.10;95.70;;;;;;5017125;28;20704;-50
2022/03/16 12:18:47;;;;;;;31.73;17.10;;;10.10;95.50;;;;;;5020063;28;20197;-44
2022/03/16 12:21:15;;;;;;;28.00;15.83;;;10.10;95.40;;;;;;5010136;28;20197;-46
2022/03/16 12:23:58;;;;;;;26.00;14.60;;;10.00;95.30;;;;;;5014559;28;20279;-46
2022/03/16 12:26:30;;;;;;;27.73;14.77;;;10.00;95.30;;;;;;5024727;28;20223;-47
2022/03/16 12:29:07;;;;;;;23.43;13.10;;;10.00;95.50;;;;;;5030639;28;20661;-46
2022/03/16 12:31:42;;;;;;;25.00;13.77;;;10.00;95.60;;;;;;5008428;28;20194;-46
2022/03/16 12:34:09;;;;;;;19.77;10.93;;;10.00;95.60;;;;;;5018081;28;20281;-52
2022/03/16 12:36:36;;;;;;;30.50;16.10;;;9.90;96.10;;;;;;5012767;28;20307;-49
2022/03/16 12:39:07;;;;;;;26.23;15.07;;;10.00;95.60;;;;;;4988243;28;20207;-49
2022/03/16 12:44:21;;;;;;;27.13;14.27;;;10.00;95.50;;;;;;4983546;28;20257;-48
2022/03/16 12:47:00;;;;;;;27.70;15.73;;;10.00;95.50;;;;;;5015393;28;20203;-45
2022/03/16 12:49:27;;;;;;;24.20;13.80;;;10.10;95.40;;;;;;5018866;28;20197;-52
2022/03/16 12:51:55;;;;;;;27.77;15.57;;;10.00;95.40;;;;;;5010369;28;20204;-48
2022/03/16 12:54:31;;;;;;;21.73;12.83;;;10.00;95.40;;;;;;5020757;28;20637;-45
2022/03/16 12:57:01;;;;;;;22.73;13.23;;;10.00;95.30;;;;;;5013722;28;20612;-48
2022/03/16 12:59:31;;;;;;;22.27;13.30;;;10.00;95.20;;;;;;5012063;28;20698;-49
2022/03/16 13:02:03;;;;;;;21.43;12.43;;;10.00;95.10;;;;;;5013904;28;20199;-51
2022/03/16 13:04:30;;;;;;;24.37;14.20;;;10.00;95.10;;;;;;5009886;28;20247;-48